Terminal Aerodrome Forecast
Issued by NWS

Home | Current Version | Previous Version | Text Only | Print | Product List | Glossary On
Versions: 1 2 3 4 5 6 7 8 9 10 11 12 13 14 15 16 17 18 19
000
FTAK31 PAFA 240528
TAFAOM
TAF
PAOM 240528Z 2406/2506 09012KT 1SM -RASN BR BKN008 OVC012
     FM241200 09015KT 1 1/2SM -RASN BR BKN008 BKN015 OVC025
     FM241800 06020G30KT 2SM -RA BR SCT008 BKN015 OVC025=

USA.gov is the U.S. government's official web portal to all federal, state and local government web resources and services.